sensor_id;sensor_type;location;lat;lon;timestamp;temperature;humidity
56729;DHT22;42612;52.232;7.560;2023-07-13T00:01:51;22.40;48.50
56729;DHT22;42612;52.232;7.560;2023-07-13T00:04:21;22.40;48.60
56729;DHT22;42612;52.232;7.560;2023-07-13T00:06:51;22.40;48.40
56729;DHT22;42612;52.232;7.560;2023-07-13T00:09:17;22.40;48.50
56729;DHT22;42612;52.232;7.560;2023-07-13T00:11:44;22.30;48.40
56729;DHT22;42612;52.232;7.560;2023-07-13T00:14:13;22.30;48.40
56729;DHT22;42612;52.232;7.560;2023-07-13T00:16:41;22.30;48.40
56729;DHT22;42612;52.232;7.560;2023-07-13T00:19:10;22.20;48.40
56729;DHT22;42612;52.232;7.560;2023-07-13T00:21:37;22.20;48.60
56729;DHT22;42612;52.232;7.560;2023-07-13T00:24:05;22.10;48.50
56729;DHT22;42612;52.232;7.560;2023-07-13T00:26:31;22.10;48.70
56729;DHT22;42612;52.232;7.560;2023-07-13T00:28:58;22.10;48.90
56729;DHT22;42612;52.232;7.560;2023-07-13T00:31:24;22.00;48.90
56729;DHT22;42612;52.232;7.560;2023-07-13T00:33:50;22.00;49.00
56729;DHT22;42612;52.232;7.560;2023-07-13T00:36:17;22.00;49.20
56729;DHT22;42612;52.232;7.560;2023-07-13T00:38:43;22.00;49.30
56729;DHT22;42612;52.232;7.560;2023-07-13T00:41:09;22.00;49.40
56729;DHT22;42612;52.232;7.560;2023-07-13T00:43:35;22.00;49.50
56729;DHT22;42612;52.232;7.560;2023-07-13T00:46:23;22.00;49.50
56729;DHT22;42612;52.232;7.560;2023-07-13T00:48:51;22.00;49.70
56729;DHT22;42612;52.232;7.560;2023-07-13T00:51:21;22.00;49.50
56729;DHT22;42612;52.232;7.560;2023-07-13T00:53:51;22.00;49.50
56729;DHT22;42612;52.232;7.560;2023-07-13T00:56:18;22.00;49.60
56729;DHT22;42612;52.232;7.560;2023-07-13T00:58:45;22.00;49.60
56729;DHT22;42612;52.232;7.560;2023-07-13T01:01:10;22.00;49.70
56729;DHT22;42612;52.232;7.560;2023-07-13T01:03:38;22.00;49.70
56729;DHT22;42612;52.232;7.560;2023-07-13T01:06:06;22.00;49.70
56729;DHT22;42612;52.232;7.560;2023-07-13T01:08:31;22.00;49.70
56729;DHT22;42612;52.232;7.560;2023-07-13T01:10:58;22.00;49.70
56729;DHT22;42612;52.232;7.560;2023-07-13T01:13:24;21.90;49.70
56729;DHT22;42612;52.232;7.560;2023-07-13T01:15:52;21.90;49.80
56729;DHT22;42612;52.232;7.560;2023-07-13T01:18:24;21.90;49.90
56729;DHT22;42612;52.232;7.560;2023-07-13T01:20:52;21.90;50.10
56729;DHT22;42612;52.232;7.560;2023-07-13T01:23:22;21.90;49.90
56729;DHT22;42612;52.232;7.560;2023-07-13T01:25:50;21.90;50.00
56729;DHT22;42612;52.232;7.560;2023-07-13T01:28:16;21.90;50.00
56729;DHT22;42612;52.232;7.560;2023-07-13T01:30:43;21.90;50.10
56729;DHT22;42612;52.232;7.560;2023-07-13T01:33:12;21.90;50.10
56729;DHT22;42612;52.232;7.560;2023-07-13T01:35:40;21.90;50.10
56729;DHT22;42612;52.232;7.560;2023-07-13T01:38:07;21.90;50.20
56729;DHT22;42612;52.232;7.560;2023-07-13T01:40:34;21.80;50.10
56729;DHT22;42612;52.232;7.560;2023-07-13T01:43:00;21.80;50.20
56729;DHT22;42612;52.232;7.560;2023-07-13T01:45:26;21.80;50.10
56729;DHT22;42612;52.232;7.560;2023-07-13T01:47:52;21.80;50.20
56729;DHT22;42612;52.232;7.560;2023-07-13T01:50:17;21.80;50.30
56729;DHT22;42612;52.232;7.560;2023-07-13T01:52:43;21.70;50.20
56729;DHT22;42612;52.232;7.560;2023-07-13T01:55:09;21.70;50.30
56729;DHT22;42612;52.232;7.560;2023-07-13T01:57:34;21.80;50.40
56729;DHT22;42612;52.232;7.560;2023-07-13T02:00:03;21.70;50.40
56729;DHT22;42612;52.232;7.560;2023-07-13T02:02:31;21.70;50.60
56729;DHT22;42612;52.232;7.560;2023-07-13T02:04:57;21.70;50.50
56729;DHT22;42612;52.232;7.560;2023-07-13T02:07:22;21.70;50.60
56729;DHT22;42612;52.232;7.560;2023-07-13T02:09:48;21.60;50.60
56729;DHT22;42612;52.232;7.560;2023-07-13T02:12:14;21.60;50.60
56729;DHT22;42612;52.232;7.560;2023-07-13T02:14:40;21.60;50.70
56729;DHT22;42612;52.232;7.560;2023-07-13T02:17:05;21.60;50.70
56729;DHT22;42612;52.232;7.560;2023-07-13T02:19:31;21.60;50.80
56729;DHT22;42612;52.232;7.560;2023-07-13T02:21:57;21.50;50.80
56729;DHT22;42612;52.232;7.560;2023-07-13T02:24:23;21.50;50.80
56729;DHT22;42612;52.232;7.560;2023-07-13T02:26:48;21.60;50.80
56729;DHT22;42612;52.232;7.560;2023-07-13T02:29:14;21.50;50.80
56729;DHT22;42612;52.232;7.560;2023-07-13T02:31:40;21.50;50.70
56729;DHT22;42612;52.232;7.560;2023-07-13T02:34:06;21.50;50.80
56729;DHT22;42612;52.232;7.560;2023-07-13T02:36:32;21.40;50.80
56729;DHT22;42612;52.232;7.560;2023-07-13T02:39:01;21.40;50.90
56729;DHT22;42612;52.232;7.560;2023-07-13T02:41:28;21.40;51.10
56729;DHT22;42612;52.232;7.560;2023-07-13T02:43:53;21.30;51.10
56729;DHT22;42612;52.232;7.560;2023-07-13T02:46:19;21.30;51.20
56729;DHT22;42612;52.232;7.560;2023-07-13T02:48:45;21.30;51.20
56729;DHT22;42612;52.232;7.560;2023-07-13T02:51:11;21.30;51.40
56729;DHT22;42612;52.232;7.560;2023-07-13T02:53:37;21.20;51.30
56729;DHT22;42612;52.232;7.560;2023-07-13T02:56:04;21.30;51.40
56729;DHT22;42612;52.232;7.560;2023-07-13T02:58:30;21.20;51.40
56729;DHT22;42612;52.232;7.560;2023-07-13T03:00:56;21.20;51.30
56729;DHT22;42612;52.232;7.560;2023-07-13T03:03:23;21.20;51.40
56729;DHT22;42612;52.232;7.560;2023-07-13T03:06:01;21.20;51.40
56729;DHT22;42612;52.232;7.560;2023-07-13T03:08:28;21.20;51.60
56729;DHT22;42612;52.232;7.560;2023-07-13T03:11:02;21.20;51.30
56729;DHT22;42612;52.232;7.560;2023-07-13T03:13:33;21.20;51.60
56729;DHT22;42612;52.232;7.560;2023-07-13T03:15:58;21.20;51.40
56729;DHT22;42612;52.232;7.560;2023-07-13T03:18:27;21.20;51.40
56729;DHT22;42612;52.232;7.560;2023-07-13T03:20:53;21.10;51.50
56729;DHT22;42612;52.232;7.560;2023-07-13T03:23:20;21.10;51.50
56729;DHT22;42612;52.232;7.560;2023-07-13T03:25:46;21.10;51.50
56729;DHT22;42612;52.232;7.560;2023-07-13T03:28:12;21.10;51.40
56729;DHT22;42612;52.232;7.560;2023-07-13T03:30:38;21.10;51.40
56729;DHT22;42612;52.232;7.560;2023-07-13T03:33:04;21.10;51.50
56729;DHT22;42612;52.232;7.560;2023-07-13T03:35:30;21.10;51.50
56729;DHT22;42612;52.232;7.560;2023-07-13T03:37:58;21.10;51.50
56729;DHT22;42612;52.232;7.560;2023-07-13T03:40:25;21.10;51.50
56729;DHT22;42612;52.232;7.560;2023-07-13T03:42:52;21.10;51.50
56729;DHT22;42612;52.232;7.560;2023-07-13T03:45:18;21.10;51.60
56729;DHT22;42612;52.232;7.560;2023-07-13T03:47:44;21.00;51.20
56729;DHT22;42612;52.232;7.560;2023-07-13T03:50:10;21.00;51.30
56729;DHT22;42612;52.232;7.560;2023-07-13T03:52:36;21.00;51.40
56729;DHT22;42612;52.232;7.560;2023-07-13T03:55:02;20.90;51.50
56729;DHT22;42612;52.232;7.560;2023-07-13T03:57:28;20.90;51.50
56729;DHT22;42612;52.232;7.560;2023-07-13T03:59:54;20.90;51.60
56729;DHT22;42612;52.232;7.560;2023-07-13T04:02:20;20.80;51.60
56729;DHT22;42612;52.232;7.560;2023-07-13T04:04:46;20.90;51.70
56729;DHT22;42612;52.232;7.560;2023-07-13T04:07:12;20.90;51.80
56729;DHT22;42612;52.232;7.560;2023-07-13T04:09:38;20.90;51.80
56729;DHT22;42612;52.232;7.560;2023-07-13T04:12:04;20.80;51.70
56729;DHT22;42612;52.232;7.560;2023-07-13T04:14:30;20.80;51.80
56729;DHT22;42612;52.232;7.560;2023-07-13T04:16:56;20.80;51.70
56729;DHT22;42612;52.232;7.560;2023-07-13T04:19:22;20.80;51.80
56729;DHT22;42612;52.232;7.560;2023-07-13T04:21:48;20.70;51.80
56729;DHT22;42612;52.232;7.560;2023-07-13T04:24:14;20.70;51.90
56729;DHT22;42612;52.232;7.560;2023-07-13T04:26:40;20.70;52.00
56729;DHT22;42612;52.232;7.560;2023-07-13T04:29:06;20.70;52.10
56729;DHT22;42612;52.232;7.560;2023-07-13T04:31:33;20.60;52.20
56729;DHT22;42612;52.232;7.560;2023-07-13T04:33:59;20.60;52.30
56729;DHT22;42612;52.232;7.560;2023-07-13T04:36:25;20.60;52.40
56729;DHT22;42612;52.232;7.560;2023-07-13T04:38:54;20.50;52.60
56729;DHT22;42612;52.232;7.560;2023-07-13T04:41:21;20.50;52.70
56729;DHT22;42612;52.232;7.560;2023-07-13T04:43:47;20.50;52.80
56729;DHT22;42612;52.232;7.560;2023-07-13T04:46:15;20.50;52.80
56729;DHT22;42612;52.232;7.560;2023-07-13T04:48:43;20.50;52.90
56729;DHT22;42612;52.232;7.560;2023-07-13T04:51:09;20.50;53.00
56729;DHT22;42612;52.232;7.560;2023-07-13T04:53:35;20.50;53.10
56729;DHT22;42612;52.232;7.560;2023-07-13T04:56:01;20.50;53.00
56729;DHT22;42612;52.232;7.560;2023-07-13T04:58:27;20.50;53.20
56729;DHT22;42612;52.232;7.560;2023-07-13T05:00:59;20.60;53.30
56729;DHT22;42612;52.232;7.560;2023-07-13T05:03:26;20.50;53.50
56729;DHT22;42612;52.232;7.560;2023-07-13T05:05:57;20.60;53.30
56729;DHT22;42612;52.232;7.560;2023-07-13T05:08:24;20.60;53.50
56729;DHT22;42612;52.232;7.560;2023-07-13T05:10:51;20.60;53.30
56729;DHT22;42612;52.232;7.560;2023-07-13T05:13:17;20.60;53.30
56729;DHT22;42612;52.232;7.560;2023-07-13T05:15:43;20.60;53.30
56729;DHT22;42612;52.232;7.560;2023-07-13T05:18:09;20.60;53.40
56729;DHT22;42612;52.232;7.560;2023-07-13T05:20:34;20.60;53.40
56729;DHT22;42612;52.232;7.560;2023-07-13T05:23:00;20.60;53.50
56729;DHT22;42612;52.232;7.560;2023-07-13T05:25:26;20.50;53.60
56729;DHT22;42612;52.232;7.560;2023-07-13T05:27:52;20.50;53.60
56729;DHT22;42612;52.232;7.560;2023-07-13T05:30:18;20.50;53.80
56729;DHT22;42612;52.232;7.560;2023-07-13T05:32:43;20.50;53.80
56729;DHT22;42612;52.232;7.560;2023-07-13T05:35:09;20.50;54.00
56729;DHT22;42612;52.232;7.560;2023-07-13T05:37:36;20.50;54.10
56729;DHT22;42612;52.232;7.560;2023-07-13T05:40:02;20.50;54.20
56729;DHT22;42612;52.232;7.560;2023-07-13T05:42:28;20.50;54.20
56729;DHT22;42612;52.232;7.560;2023-07-13T05:44:56;20.50;54.00
56729;DHT22;42612;52.232;7.560;2023-07-13T05:47:22;20.50;55.00
56729;DHT22;42612;52.232;7.560;2023-07-13T05:49:47;20.40;54.50
56729;DHT22;42612;52.232;7.560;2023-07-13T05:52:13;20.40;54.80
56729;DHT22;42612;52.232;7.560;2023-07-13T05:54:39;20.40;54.60
56729;DHT22;42612;52.232;7.560;2023-07-13T05:57:05;20.40;54.70
56729;DHT22;42612;52.232;7.560;2023-07-13T05:59:30;20.40;54.90
56729;DHT22;42612;52.232;7.560;2023-07-13T06:01:56;20.40;55.10
56729;DHT22;42612;52.232;7.560;2023-07-13T06:04:22;20.40;55.00
56729;DHT22;42612;52.232;7.560;2023-07-13T06:06:47;20.40;55.20
56729;DHT22;42612;52.232;7.560;2023-07-13T06:09:13;20.50;55.30
56729;DHT22;42612;52.232;7.560;2023-07-13T06:11:39;20.40;55.30
56729;DHT22;42612;52.232;7.560;2023-07-13T06:14:04;20.50;55.70
56729;DHT22;42612;52.232;7.560;2023-07-13T06:16:30;20.40;55.60
56729;DHT22;42612;52.232;7.560;2023-07-13T06:18:56;20.40;55.60
56729;DHT22;42612;52.232;7.560;2023-07-13T06:21:22;20.40;55.70
56729;DHT22;42612;52.232;7.560;2023-07-13T06:23:50;20.40;55.90
56729;DHT22;42612;52.232;7.560;2023-07-13T06:26:18;20.50;55.90
56729;DHT22;42612;52.232;7.560;2023-07-13T06:28:45;20.50;56.00
56729;DHT22;42612;52.232;7.560;2023-07-13T06:31:12;20.50;56.00
56729;DHT22;42612;52.232;7.560;2023-07-13T06:33:39;20.50;56.70
56729;DHT22;42612;52.232;7.560;2023-07-13T06:36:06;20.50;56.00
56729;DHT22;42612;52.232;7.560;2023-07-13T06:38:33;20.60;56.10
56729;DHT22;42612;52.232;7.560;2023-07-13T06:40:59;20.60;55.90
56729;DHT22;42612;52.232;7.560;2023-07-13T06:43:25;20.60;56.00
56729;DHT22;42612;52.232;7.560;2023-07-13T06:45:54;20.70;56.00
56729;DHT22;42612;52.232;7.560;2023-07-13T06:48:20;20.70;56.00
56729;DHT22;42612;52.232;7.560;2023-07-13T06:50:47;20.70;55.90
56729;DHT22;42612;52.232;7.560;2023-07-13T06:53:14;20.70;56.00
56729;DHT22;42612;52.232;7.560;2023-07-13T06:55:40;20.70;56.00
56729;DHT22;42612;52.232;7.560;2023-07-13T06:58:06;20.80;56.00
56729;DHT22;42612;52.232;7.560;2023-07-13T07:00:32;20.80;55.80
56729;DHT22;42612;52.232;7.560;2023-07-13T07:02:58;20.80;55.80
56729;DHT22;42612;52.232;7.560;2023-07-13T07:05:23;20.90;55.90
56729;DHT22;42612;52.232;7.560;2023-07-13T07:07:50;20.90;56.00
56729;DHT22;42612;52.232;7.560;2023-07-13T07:10:18;20.90;56.10
56729;DHT22;42612;52.232;7.560;2023-07-13T07:12:44;21.00;56.00
56729;DHT22;42612;52.232;7.560;2023-07-13T07:15:10;21.00;56.00
56729;DHT22;42612;52.232;7.560;2023-07-13T07:17:36;21.00;55.90
56729;DHT22;42612;52.232;7.560;2023-07-13T07:20:02;21.00;55.90
56729;DHT22;42612;52.232;7.560;2023-07-13T07:22:29;21.10;55.90
56729;DHT22;42612;52.232;7.560;2023-07-13T07:24:56;21.10;56.10
56729;DHT22;42612;52.232;7.560;2023-07-13T07:27:23;21.10;56.10
56729;DHT22;42612;52.232;7.560;2023-07-13T07:29:49;21.10;56.00
56729;DHT22;42612;52.232;7.560;2023-07-13T07:32:23;21.30;56.10
56729;DHT22;42612;52.232;7.560;2023-07-13T07:34:49;21.20;56.50
56729;DHT22;42612;52.232;7.560;2023-07-13T07:37:15;21.20;56.10
56729;DHT22;42612;52.232;7.560;2023-07-13T07:39:42;21.30;56.20
56729;DHT22;42612;52.232;7.560;2023-07-13T07:42:08;21.30;56.40
56729;DHT22;42612;52.232;7.560;2023-07-13T07:44:34;21.40;56.40
56729;DHT22;42612;52.232;7.560;2023-07-13T07:47:00;21.40;56.40
56729;DHT22;42612;52.232;7.560;2023-07-13T07:49:26;21.40;56.40
56729;DHT22;42612;52.232;7.560;2023-07-13T07:51:52;21.50;56.40
56729;DHT22;42612;52.232;7.560;2023-07-13T07:54:18;21.50;56.20
56729;DHT22;42612;52.232;7.560;2023-07-13T07:56:44;21.50;56.10
56729;DHT22;42612;52.232;7.560;2023-07-13T07:59:10;21.60;56.00
56729;DHT22;42612;52.232;7.560;2023-07-13T08:01:36;21.60;56.20
56729;DHT22;42612;52.232;7.560;2023-07-13T08:04:02;21.70;55.90
56729;DHT22;42612;52.232;7.560;2023-07-13T08:06:28;21.70;55.80
56729;DHT22;42612;52.232;7.560;2023-07-13T08:08:54;21.70;55.80
56729;DHT22;42612;52.232;7.560;2023-07-13T08:11:20;21.70;55.90
56729;DHT22;42612;52.232;7.560;2023-07-13T08:13:47;21.80;56.10
56729;DHT22;42612;52.232;7.560;2023-07-13T08:16:12;21.80;56.00
56729;DHT22;42612;52.232;7.560;2023-07-13T08:18:38;21.90;56.10
56729;DHT22;42612;52.232;7.560;2023-07-13T08:21:06;21.90;55.90
56729;DHT22;42612;52.232;7.560;2023-07-13T08:23:32;21.90;55.80
56729;DHT22;42612;52.232;7.560;2023-07-13T08:25:58;22.10;56.00
56729;DHT22;42612;52.232;7.560;2023-07-13T08:28:26;22.00;55.80
56729;DHT22;42612;52.232;7.560;2023-07-13T08:30:53;22.10;55.60
56729;DHT22;42612;52.232;7.560;2023-07-13T08:33:20;22.10;55.60
56729;DHT22;42612;52.232;7.560;2023-07-13T08:35:49;22.20;55.40
56729;DHT22;42612;52.232;7.560;2023-07-13T08:38:16;22.20;55.30
56729;DHT22;42612;52.232;7.560;2023-07-13T08:40:43;22.20;55.10
56729;DHT22;42612;52.232;7.560;2023-07-13T08:43:25;22.30;55.00
56729;DHT22;42612;52.232;7.560;2023-07-13T08:46:01;22.30;55.10
56729;DHT22;42612;52.232;7.560;2023-07-13T08:48:56;22.30;55.20
56729;DHT22;42612;52.232;7.560;2023-07-13T08:54:12;22.40;55.30
56729;DHT22;42612;52.232;7.560;2023-07-13T08:56:45;22.40;55.00
56729;DHT22;42612;52.232;7.560;2023-07-13T08:59:18;22.50;54.90
56729;DHT22;42612;52.232;7.560;2023-07-13T09:05:03;22.50;54.40
56729;DHT22;42612;52.232;7.560;2023-07-13T09:10:23;22.50;54.10
56729;DHT22;42612;52.232;7.560;2023-07-13T09:15:51;22.60;54.20
56729;DHT22;42612;52.232;7.560;2023-07-13T09:21:13;22.70;54.00
56729;DHT22;42612;52.232;7.560;2023-07-13T09:23:43;22.70;53.90
56729;DHT22;42612;52.232;7.560;2023-07-13T09:26:21;22.70;53.70
56729;DHT22;42612;52.232;7.560;2023-07-13T09:29:01;22.70;53.60
56729;DHT22;42612;52.232;7.560;2023-07-13T09:31:34;22.80;53.90
56729;DHT22;42612;52.232;7.560;2023-07-13T09:34:04;22.80;54.30
56729;DHT22;42612;52.232;7.560;2023-07-13T09:36:33;22.80;54.50
56729;DHT22;42612;52.232;7.560;2023-07-13T09:41:49;22.90;53.90
56729;DHT22;42612;52.232;7.560;2023-07-13T09:44:29;23.00;53.80
56729;DHT22;42612;52.232;7.560;2023-07-13T09:46:58;23.00;53.60
56729;DHT22;42612;52.232;7.560;2023-07-13T09:49:34;23.10;53.90
56729;DHT22;42612;52.232;7.560;2023-07-13T09:52:06;23.10;53.20
56729;DHT22;42612;52.232;7.560;2023-07-13T09:54:36;23.10;53.20
56729;DHT22;42612;52.232;7.560;2023-07-13T09:57:11;23.20;53.40
56729;DHT22;42612;52.232;7.560;2023-07-13T09:59:47;23.20;53.40
56729;DHT22;42612;52.232;7.560;2023-07-13T10:02:25;23.20;53.20
56729;DHT22;42612;52.232;7.560;2023-07-13T10:05:18;23.20;53.10
56729;DHT22;42612;52.232;7.560;2023-07-13T10:07:47;23.20;53.80
56729;DHT22;42612;52.232;7.560;2023-07-13T10:10:15;23.30;53.70
56729;DHT22;42612;52.232;7.560;2023-07-13T10:12:46;23.30;53.10
56729;DHT22;42612;52.232;7.560;2023-07-13T10:15:22;23.30;53.40
56729;DHT22;42612;52.232;7.560;2023-07-13T10:17:51;23.30;53.30
56729;DHT22;42612;52.232;7.560;2023-07-13T10:20:17;23.40;53.30
56729;DHT22;42612;52.232;7.560;2023-07-13T10:22:54;23.40;53.10
56729;DHT22;42612;52.232;7.560;2023-07-13T10:25:26;23.40;53.50
56729;DHT22;42612;52.232;7.560;2023-07-13T10:28:01;23.40;52.90
56729;DHT22;42612;52.232;7.560;2023-07-13T10:30:34;23.40;52.40
56729;DHT22;42612;52.232;7.560;2023-07-13T10:33:10;23.40;52.60
56729;DHT22;42612;52.232;7.560;2023-07-13T10:35:39;23.40;52.30
56729;DHT22;42612;52.232;7.560;2023-07-13T10:38:13;23.40;53.00
56729;DHT22;42612;52.232;7.560;2023-07-13T10:40:55;23.40;52.90
56729;DHT22;42612;52.232;7.560;2023-07-13T10:43:47;23.40;52.50
56729;DHT22;42612;52.232;7.560;2023-07-13T10:46:16;23.40;52.80
56729;DHT22;42612;52.232;7.560;2023-07-13T10:48:47;23.50;52.90
56729;DHT22;42612;52.232;7.560;2023-07-13T10:51:17;23.50;52.40
56729;DHT22;42612;52.232;7.560;2023-07-13T10:53:47;23.60;52.80
56729;DHT22;42612;52.232;7.560;2023-07-13T10:56:24;23.70;52.10
56729;DHT22;42612;52.232;7.560;2023-07-13T10:59:11;23.70;52.30
56729;DHT22;42612;52.232;7.560;2023-07-13T11:01:58;23.80;51.30
56729;DHT22;42612;52.232;7.560;2023-07-13T11:04:43;23.90;51.50
56729;DHT22;42612;52.232;7.560;2023-07-13T11:07:26;24.00;51.90
56729;DHT22;42612;52.232;7.560;2023-07-13T11:09:56;24.10;51.50
56729;DHT22;42612;52.232;7.560;2023-07-13T11:23:07;24.30;49.90
56729;DHT22;42612;52.232;7.560;2023-07-13T11:25:36;24.30;49.90
56729;DHT22;42612;52.232;7.560;2023-07-13T11:33:51;24.40;50.20
56729;DHT22;42612;52.232;7.560;2023-07-13T11:36:21;24.40;49.30
56729;DHT22;42612;52.232;7.560;2023-07-13T11:39:02;24.50;50.10
56729;DHT22;42612;52.232;7.560;2023-07-13T11:41:37;24.50;48.90
56729;DHT22;42612;52.232;7.560;2023-07-13T11:44:14;24.60;49.20
56729;DHT22;42612;52.232;7.560;2023-07-13T11:46:59;24.60;48.70
56729;DHT22;42612;52.232;7.560;2023-07-13T11:49:53;24.60;48.70
56729;DHT22;42612;52.232;7.560;2023-07-13T11:52:32;24.60;48.70
56729;DHT22;42612;52.232;7.560;2023-07-13T11:55:00;24.60;48.40
56729;DHT22;42612;52.232;7.560;2023-07-13T11:57:33;24.50;48.20
56729;DHT22;42612;52.232;7.560;2023-07-13T12:00:16;24.50;47.90
56729;DHT22;42612;52.232;7.560;2023-07-13T12:02:46;24.40;47.80
56729;DHT22;42612;52.232;7.560;2023-07-13T12:05:17;24.40;48.10
56729;DHT22;42612;52.232;7.560;2023-07-13T12:07:44;24.30;48.10
56729;DHT22;42612;52.232;7.560;2023-07-13T12:10:30;24.30;48.00
56729;DHT22;42612;52.232;7.560;2023-07-13T12:13:03;24.10;48.30
56729;DHT22;42612;52.232;7.560;2023-07-13T12:15:45;24.00;48.90
56729;DHT22;42612;52.232;7.560;2023-07-13T12:18:18;23.70;49.40
56729;DHT22;42612;52.232;7.560;2023-07-13T12:20:46;23.50;49.60
56729;DHT22;42612;52.232;7.560;2023-07-13T12:23:34;23.20;49.90
56729;DHT22;42612;52.232;7.560;2023-07-13T12:26:06;23.00;50.90
56729;DHT22;42612;52.232;7.560;2023-07-13T12:28:36;22.80;50.90
56729;DHT22;42612;52.232;7.560;2023-07-13T12:31:22;22.70;51.50
56729;DHT22;42612;52.232;7.560;2023-07-13T12:34:09;22.60;52.40
56729;DHT22;42612;52.232;7.560;2023-07-13T12:36:38;22.50;53.30
56729;DHT22;42612;52.232;7.560;2023-07-13T12:39:37;22.50;52.80
56729;DHT22;42612;52.232;7.560;2023-07-13T12:42:23;22.60;53.50
56729;DHT22;42612;52.232;7.560;2023-07-13T12:45:20;22.60;54.10
56729;DHT22;42612;52.232;7.560;2023-07-13T12:47:49;22.70;53.90
56729;DHT22;42612;52.232;7.560;2023-07-13T12:50:21;22.80;53.90
56729;DHT22;42612;52.232;7.560;2023-07-13T12:52:54;22.90;54.40
56729;DHT22;42612;52.232;7.560;2023-07-13T12:55:22;23.00;54.50
56729;DHT22;42612;52.232;7.560;2023-07-13T12:57:54;23.20;54.50
56729;DHT22;42612;52.232;7.560;2023-07-13T13:00:30;23.30;55.00
56729;DHT22;42612;52.232;7.560;2023-07-13T13:08:40;23.60;53.50
56729;DHT22;42612;52.232;7.560;2023-07-13T13:11:09;23.60;52.80
56729;DHT22;42612;52.232;7.560;2023-07-13T13:13:35;23.60;52.60
56729;DHT22;42612;52.232;7.560;2023-07-13T13:18:53;23.40;52.30
56729;DHT22;42612;52.232;7.560;2023-07-13T13:21:23;23.20;52.30
56729;DHT22;42612;52.232;7.560;2023-07-13T13:23:50;23.10;52.70
56729;DHT22;42612;52.232;7.560;2023-07-13T13:26:23;23.00;53.10
56729;DHT22;42612;52.232;7.560;2023-07-13T13:28:49;22.90;54.10
56729;DHT22;42612;52.232;7.560;2023-07-13T13:31:15;22.80;54.00
56729;DHT22;42612;52.232;7.560;2023-07-13T13:33:43;22.70;54.60
56729;DHT22;42612;52.232;7.560;2023-07-13T13:36:22;22.70;55.00
56729;DHT22;42612;52.232;7.560;2023-07-13T13:38:50;22.70;55.30
56729;DHT22;42612;52.232;7.560;2023-07-13T13:41:16;22.70;55.30
56729;DHT22;42612;52.232;7.560;2023-07-13T13:43:42;22.70;55.40
56729;DHT22;42612;52.232;7.560;2023-07-13T13:46:18;22.70;55.40
56729;DHT22;42612;52.232;7.560;2023-07-13T13:48:46;22.80;56.00
56729;DHT22;42612;52.232;7.560;2023-07-13T13:51:18;22.80;55.20
56729;DHT22;42612;52.232;7.560;2023-07-13T13:53:52;22.80;54.90
56729;DHT22;42612;52.232;7.560;2023-07-13T13:56:19;22.90;55.10
56729;DHT22;42612;52.232;7.560;2023-07-13T13:58:45;22.80;55.10
56729;DHT22;42612;52.232;7.560;2023-07-13T14:01:21;22.90;55.20
56729;DHT22;42612;52.232;7.560;2023-07-13T14:03:50;22.90;55.90
56729;DHT22;42612;52.232;7.560;2023-07-13T14:06:18;22.90;55.60
56729;DHT22;42612;52.232;7.560;2023-07-13T14:08:44;23.00;55.50
56729;DHT22;42612;52.232;7.560;2023-07-13T14:11:15;23.00;55.40
56729;DHT22;42612;52.232;7.560;2023-07-13T14:13:52;23.10;55.50
56729;DHT22;42612;52.232;7.560;2023-07-13T14:16:21;23.10;55.30
56729;DHT22;42612;52.232;7.560;2023-07-13T14:18:49;23.10;55.00
56729;DHT22;42612;52.232;7.560;2023-07-13T14:21:21;23.10;54.00
56729;DHT22;42612;52.232;7.560;2023-07-13T14:23:48;23.10;53.60
56729;DHT22;42612;52.232;7.560;2023-07-13T14:26:23;23.10;53.70
56729;DHT22;42612;52.232;7.560;2023-07-13T14:28:52;23.00;53.40
56729;DHT22;42612;52.232;7.560;2023-07-13T14:31:22;23.00;53.30
56729;DHT22;42612;52.232;7.560;2023-07-13T14:33:48;23.10;52.60
56729;DHT22;42612;52.232;7.560;2023-07-13T14:39:00;23.10;52.00
56729;DHT22;42612;52.232;7.560;2023-07-13T14:41:27;23.10;51.90
56729;DHT22;42612;52.232;7.560;2023-07-13T14:43:53;23.20;52.10
56729;DHT22;42612;52.232;7.560;2023-07-13T14:46:31;23.20;52.20
56729;DHT22;42612;52.232;7.560;2023-07-13T14:49:05;23.20;51.50
56729;DHT22;42612;52.232;7.560;2023-07-13T14:51:36;23.30;51.50
56729;DHT22;42612;52.232;7.560;2023-07-13T14:54:05;23.30;51.60
56729;DHT22;42612;52.232;7.560;2023-07-13T14:56:31;23.30;51.00
56729;DHT22;42612;52.232;7.560;2023-07-13T14:58:57;23.30;51.20
56729;DHT22;42612;52.232;7.560;2023-07-13T15:01:23;23.30;51.30
56729;DHT22;42612;52.232;7.560;2023-07-13T15:03:51;23.30;50.80
56729;DHT22;42612;52.232;7.560;2023-07-13T15:06:18;23.30;51.50
56729;DHT22;42612;52.232;7.560;2023-07-13T15:08:45;23.30;50.80
56729;DHT22;42612;52.232;7.560;2023-07-13T15:11:13;23.30;51.00
56729;DHT22;42612;52.232;7.560;2023-07-13T15:13:40;23.30;51.50
56729;DHT22;42612;52.232;7.560;2023-07-13T15:16:22;23.30;51.30
56729;DHT22;42612;52.232;7.560;2023-07-13T15:18:50;23.30;51.00
56729;DHT22;42612;52.232;7.560;2023-07-13T15:21:21;23.40;51.60
56729;DHT22;42612;52.232;7.560;2023-07-13T15:23:49;23.40;51.60
56729;DHT22;42612;52.232;7.560;2023-07-13T15:26:17;23.40;52.40
56729;DHT22;42612;52.232;7.560;2023-07-13T15:28:45;23.50;51.70
56729;DHT22;42612;52.232;7.560;2023-07-13T15:31:20;23.50;52.00
56729;DHT22;42612;52.232;7.560;2023-07-13T15:33:49;23.50;52.10
56729;DHT22;42612;52.232;7.560;2023-07-13T15:36:17;23.60;52.20
56729;DHT22;42612;52.232;7.560;2023-07-13T15:38:44;23.60;52.20
56729;DHT22;42612;52.232;7.560;2023-07-13T15:41:17;23.70;52.40
56729;DHT22;42612;52.232;7.560;2023-07-13T15:44:22;23.80;52.80
56729;DHT22;42612;52.232;7.560;2023-07-13T15:46:53;23.90;52.60
56729;DHT22;42612;52.232;7.560;2023-07-13T15:49:19;24.00;52.90
56729;DHT22;42612;52.232;7.560;2023-07-13T15:51:46;24.10;52.40
56729;DHT22;42612;52.232;7.560;2023-07-13T15:54:15;24.30;52.30
56729;DHT22;42612;52.232;7.560;2023-07-13T15:56:42;24.40;51.90
56729;DHT22;42612;52.232;7.560;2023-07-13T15:59:10;24.60;51.80
56729;DHT22;42612;52.232;7.560;2023-07-13T16:01:39;24.70;51.80
56729;DHT22;42612;52.232;7.560;2023-07-13T16:04:07;24.80;51.20
56729;DHT22;42612;52.232;7.560;2023-07-13T16:06:39;24.90;50.60
56729;DHT22;42612;52.232;7.560;2023-07-13T16:09:07;25.00;50.00
56729;DHT22;42612;52.232;7.560;2023-07-13T16:11:38;25.10;49.80
56729;DHT22;42612;52.232;7.560;2023-07-13T16:14:04;25.20;49.40
56729;DHT22;42612;52.232;7.560;2023-07-13T16:16:33;25.20;49.00
56729;DHT22;42612;52.232;7.560;2023-07-13T16:19:02;25.30;49.00
56729;DHT22;42612;52.232;7.560;2023-07-13T16:21:32;25.30;48.50
56729;DHT22;42612;52.232;7.560;2023-07-13T16:24:02;25.30;48.50
56729;DHT22;42612;52.232;7.560;2023-07-13T16:29:25;25.40;48.40
56729;DHT22;42612;52.232;7.560;2023-07-13T16:32:04;25.50;47.10